createdAt,value
2018-04-19T00:01:58.778Z,17.42
2018-04-19T00:04:26.404Z,16.45
2018-04-19T00:06:54.024Z,17.35
2018-04-19T00:09:21.648Z,16.90
2018-04-19T00:11:50.101Z,16.90
2018-04-19T00:14:17.711Z,16.20
2018-04-19T00:16:45.364Z,16.60
2018-04-19T00:19:13.020Z,16.73
2018-04-19T00:21:40.641Z,16.80
2018-04-19T00:24:08.239Z,16.62
2018-04-19T00:26:35.893Z,16.67
2018-04-19T00:29:03.556Z,16.40
2018-04-19T00:31:31.216Z,15.73
2018-04-19T00:33:58.944Z,16.08
2018-04-19T00:36:26.560Z,16.58
2018-04-19T00:38:54.143Z,16.23
2018-04-19T00:41:21.763Z,15.23
2018-04-19T00:43:49.350Z,16.45
2018-04-19T00:46:16.931Z,17.10
2018-04-19T00:48:44.569Z,14.95
2018-04-19T00:51:12.152Z,15.13
2018-04-19T00:53:39.745Z,15.48
2018-04-19T00:56:07.328Z,14.77
2018-04-19T00:58:34.960Z,15.23
2018-04-19T01:01:02.589Z,15.60
2018-04-19T01:03:30.281Z,15.63
2018-04-19T01:05:57.919Z,15.85
2018-04-19T01:08:26.320Z,15.60
2018-04-19T01:10:54.112Z,14.52
2018-04-19T01:13:21.766Z,14.57
2018-04-19T01:15:49.396Z,13.98
2018-04-19T01:18:16.984Z,14.40
2018-04-19T01:20:44.603Z,14.13
2018-04-19T01:23:13.061Z,13.13
2018-04-19T01:25:40.792Z,13.68
2018-04-19T01:28:08.384Z,12.68
2018-04-19T01:30:36.011Z,13.98
2018-04-19T01:33:03.633Z,12.57
2018-04-19T01:35:43.055Z,13.95
2018-04-19T01:38:11.443Z,13.07
2018-04-19T01:40:39.033Z,13.52
2018-04-19T01:43:06.692Z,13.60
2018-04-19T01:45:34.313Z,13.65
2018-04-19T01:48:02.708Z,13.45
2018-04-19T01:50:30.293Z,13.23
2018-04-19T01:52:57.881Z,13.02
2018-04-19T01:55:25.503Z,13.15
2018-04-19T01:57:53.089Z,12.95
2018-04-19T02:00:20.705Z,13.30
2018-04-19T02:02:48.326Z,12.52
2018-04-19T02:05:16.714Z,12.65
2018-04-19T02:07:45.057Z,11.55
2018-04-19T02:10:12.724Z,12.02
2018-04-19T02:12:40.354Z,12.50
2018-04-19T02:15:08.009Z,13.45
2018-04-19T02:17:35.591Z,12.05
2018-04-19T02:20:03.211Z,12.40
2018-04-19T02:22:30.842Z,12.35
2018-04-19T02:24:59.188Z,12.18
2018-04-19T02:27:26.811Z,12.65
2018-04-19T02:29:54.436Z,12.02
2018-04-19T02:32:22.832Z,12.27
2018-04-19T02:34:50.427Z,12.27
2018-04-19T02:37:18.059Z,12.30
2018-04-19T02:39:45.644Z,12.93
2018-04-19T02:42:13.267Z,12.80
2018-04-19T02:44:40.889Z,12.48
2018-04-19T02:47:08.528Z,12.25
2018-04-19T02:49:36.115Z,12.88
2018-04-19T02:52:04.510Z,12.35
2018-04-19T02:54:32.916Z,12.05
2018-04-19T02:57:00.498Z,12.93
2018-04-19T02:59:28.081Z,12.25
2018-04-19T03:01:55.664Z,12.20
2018-04-19T03:04:23.284Z,12.43
2018-04-19T03:06:50.879Z,11.73
2018-04-19T03:09:19.272Z,12.05
2018-04-19T03:11:46.856Z,12.10
2018-04-19T03:14:14.487Z,11.77
2018-04-19T03:16:42.068Z,11.85
2018-04-19T03:19:09.652Z,11.88
2018-04-19T03:21:37.296Z,11.98
2018-04-19T03:24:04.898Z,12.05
2018-04-19T03:26:33.291Z,11.80
2018-04-19T03:29:00.928Z,11.63
2018-04-19T03:31:28.573Z,11.40
2018-04-19T03:33:56.161Z,11.60
2018-04-19T03:36:24.512Z,11.10
2018-04-19T03:38:52.107Z,10.25
2018-04-19T03:41:19.731Z,10.57
2018-04-19T03:43:47.359Z,10.88
2018-04-19T03:46:14.944Z,10.45
2018-04-19T03:48:42.564Z,11.18
2018-04-19T03:51:10.201Z,11.40
2018-04-19T03:53:37.832Z,10.50
2018-04-19T03:56:05.419Z,11.48
2018-04-19T03:58:33.044Z,10.82
2018-04-19T04:01:00.640Z,10.95
2018-04-19T04:03:28.272Z,10.90
2018-04-19T04:05:56.664Z,11.18
2018-04-19T04:08:25.051Z,10.82
2018-04-19T04:10:52.697Z,10.43
2018-04-19T04:13:21.087Z,10.70
2018-04-19T04:15:48.673Z,10.43
2018-04-19T04:18:28.155Z,10.52
2018-04-19T04:21:08.340Z,10.90
2018-04-19T04:23:54.339Z,10.25
2018-04-19T04:26:22.302Z,11.57
2018-04-19T04:28:49.927Z,10.90
2018-04-19T04:31:18.547Z,10.88
2018-04-19T04:33:46.257Z,10.40
2018-04-19T04:36:13.835Z,9.88
2018-04-19T04:38:42.300Z,11.12
2018-04-19T04:41:09.904Z,10.05
2018-04-19T04:51:09.828Z,10.10
2018-04-19T04:53:38.228Z,10.75
2018-04-19T04:56:05.824Z,10.20
2018-04-19T04:58:33.403Z,10.50
2018-04-19T05:01:01.036Z,10.40
2018-04-19T05:03:28.628Z,10.88
2018-04-19T05:05:57.054Z,9.98
2018-04-19T05:08:24.676Z,10.55
2018-04-19T05:10:53.019Z,9.93
2018-04-19T05:13:20.605Z,9.75
2018-04-19T05:15:48.951Z,9.88
2018-04-19T05:18:16.550Z,9.88
2018-04-19T05:20:44.892Z,9.23
2018-04-19T05:23:12.474Z,9.00
2018-04-19T05:25:40.820Z,8.15
2018-04-19T05:28:08.404Z,7.70
2018-04-19T05:30:36.800Z,8.57
2018-04-19T05:33:05.153Z,9.88
2018-04-19T05:35:32.728Z,9.85
2018-04-19T05:38:01.085Z,11.20
2018-04-19T05:40:28.673Z,11.65
2018-04-19T05:42:57.023Z,12.13
2018-04-19T05:45:24.621Z,13.85
2018-04-19T05:47:52.968Z,13.32
2018-04-19T05:50:22.171Z,14.48
2018-04-19T05:52:49.752Z,14.98
2018-04-19T05:55:18.100Z,14.55
2018-04-19T05:57:45.721Z,18.25
2018-04-19T06:00:13.304Z,22.05
2018-04-19T06:02:40.895Z,24.23
2018-04-19T06:05:08.476Z,24.12
2018-04-19T06:07:36.061Z,26.98
2018-04-19T06:10:03.641Z,31.30
2018-04-19T06:12:31.224Z,33.88
2018-04-19T06:14:58.812Z,34.15
2018-04-19T06:17:26.416Z,34.42
2018-04-19T06:19:54.033Z,32.50
2018-04-19T06:22:21.647Z,34.42
2018-04-19T06:24:49.227Z,34.47
2018-04-19T06:27:17.577Z,37.10
2018-04-19T06:29:45.165Z,36.92
2018-04-19T06:32:13.542Z,36.58
2018-04-19T06:34:41.897Z,36.00
2018-04-19T06:37:09.529Z,37.47
2018-04-19T06:39:37.144Z,37.60
2018-04-19T06:42:05.512Z,35.13
2018-04-19T06:44:33.900Z,37.92
2018-04-19T06:47:02.287Z,35.13
2018-04-19T06:49:29.876Z,36.65
2018-04-19T06:51:57.465Z,33.83
2018-04-19T06:54:25.044Z,31.05
2018-04-19T06:56:53.401Z,31.37
2018-04-19T06:59:20.985Z,30.20
2018-04-19T07:01:49.332Z,29.77
2018-04-19T07:04:16.917Z,29.37
2018-04-19T07:06:45.270Z,32.08
2018-04-19T07:09:12.889Z,31.50
2018-04-19T07:11:40.476Z,30.80
2018-04-19T07:14:08.062Z,34.28
2018-04-19T07:16:36.411Z,30.55
2018-04-19T07:19:04.024Z,31.80
2018-04-19T07:21:31.609Z,26.67
2018-04-19T07:23:59.194Z,30.70
2018-04-19T07:26:26.780Z,22.70
2018-04-19T07:28:55.132Z,26.83
2018-04-19T07:31:22.805Z,24.50
2018-04-19T07:33:50.409Z,24.58
2018-04-19T07:36:18.030Z,26.67
2018-04-19T07:38:46.408Z,29.23
2018-04-19T07:41:14.760Z,28.98
2018-04-19T07:43:42.347Z,30.55
2018-04-19T07:46:10.773Z,30.20
2018-04-19T07:48:38.349Z,28.67
2018-04-19T07:51:05.971Z,29.42
2018-04-19T07:53:33.556Z,29.63
2018-04-19T07:56:01.140Z,28.00
2018-04-19T07:58:28.763Z,29.37
2018-04-19T08:00:56.349Z,28.52
2018-04-19T08:03:23.989Z,26.20
2018-04-19T08:05:51.580Z,26.02
2018-04-19T08:08:19.939Z,26.60
2018-04-19T08:10:47.519Z,27.98
2018-04-19T08:13:15.873Z,27.02
2018-04-19T08:15:43.676Z,24.65
2018-04-19T08:18:11.279Z,25.08
2018-04-19T08:20:38.864Z,24.20
2018-04-19T08:23:06.451Z,25.62
2018-04-19T08:25:34.801Z,24.70
2018-04-19T08:28:02.388Z,23.85
2018-04-19T08:30:30.737Z,22.73
2018-04-19T08:32:58.362Z,21.02
2018-04-19T08:35:25.989Z,19.20
2018-04-19T08:37:54.344Z,18.45
2018-04-19T08:40:22.703Z,15.52
2018-04-19T08:42:50.288Z,15.75
2018-04-19T08:45:18.636Z,13.23
2018-04-19T08:47:46.229Z,12.90
2018-04-19T08:50:14.615Z,11.88
2018-04-19T08:52:42.196Z,11.12
2018-04-19T08:55:09.780Z,9.60
2018-04-19T08:57:37.377Z,9.52
2018-04-19T09:00:05.720Z,9.18
2018-04-19T09:02:33.304Z,7.75
2018-04-19T09:05:01.649Z,8.10
2018-04-19T09:07:30.027Z,7.35
2018-04-19T09:09:57.664Z,6.55
2018-04-19T09:12:25.236Z,6.72
2018-04-19T09:14:52.820Z,6.65
2018-04-19T09:17:20.415Z,6.03
2018-04-19T09:19:47.996Z,5.82
2018-04-19T09:22:15.578Z,5.30
2018-04-19T09:24:43.164Z,5.32
2018-04-19T09:27:11.509Z,5.00
2018-04-19T09:29:39.133Z,5.18
2018-04-19T09:32:06.720Z,4.55
2018-04-19T09:34:34.292Z,4.45
2018-04-19T09:37:01.889Z,4.32
2018-04-19T09:39:29.476Z,4.22
2018-04-19T09:41:57.070Z,4.25
2018-04-19T09:44:24.684Z,4.10
2018-04-19T09:46:52.261Z,4.10
2018-04-19T09:49:19.839Z,4.07
2018-04-19T09:51:47.431Z,4.03
2018-04-19T09:54:15.857Z,3.97
2018-04-19T09:56:58.272Z,3.42
2018-04-19T09:59:25.854Z,3.45
2018-04-19T10:01:53.472Z,3.12
2018-04-19T10:04:26.731Z,3.70
2018-04-19T10:06:54.308Z,3.40
2018-04-19T10:09:21.893Z,2.80
2018-04-19T10:11:49.476Z,3.25
2018-04-19T10:14:17.068Z,2.58
2018-04-19T10:16:44.655Z,2.70
2018-04-19T10:19:12.288Z,3.08
2018-04-19T10:21:39.900Z,2.65
2018-04-19T10:24:07.477Z,2.53
2018-04-19T10:26:35.059Z,3.08
2018-04-19T10:29:02.637Z,3.85
2018-04-19T10:31:30.209Z,4.07
2018-04-19T10:33:57.798Z,4.80
2018-04-19T10:36:25.376Z,4.82
2018-04-19T10:38:53.726Z,4.40
2018-04-19T10:41:21.314Z,5.00
2018-04-19T10:43:49.655Z,6.00
2018-04-19T10:46:17.236Z,6.05
2018-04-19T10:48:44.817Z,6.85
2018-04-19T10:51:13.163Z,6.12
2018-04-19T10:53:40.736Z,5.85
2018-04-19T10:56:09.084Z,5.90
2018-04-19T10:58:36.658Z,5.43
2018-04-19T11:01:04.236Z,6.15
2018-04-19T11:03:32.625Z,4.82
2018-04-19T11:06:00.236Z,5.03
2018-04-19T11:08:27.813Z,4.72
2018-04-19T11:10:55.389Z,4.00
2018-04-19T11:13:23.736Z,3.87
2018-04-19T11:15:51.325Z,4.50
2018-04-19T11:18:19.665Z,4.85
2018-04-19T11:20:47.241Z,4.25
2018-04-19T11:23:15.588Z,4.32
2018-04-19T11:25:43.168Z,4.45
2018-04-19T11:28:10.787Z,3.55
2018-04-19T11:30:38.373Z,3.83
2018-04-19T11:33:05.969Z,4.57
2018-04-19T11:35:34.316Z,4.60
2018-04-19T11:38:01.895Z,4.12
2018-04-19T11:40:30.241Z,3.83
2018-04-19T11:42:57.848Z,4.37
2018-04-19T11:45:25.429Z,3.87
2018-04-19T11:47:53.016Z,3.50
2018-04-19T11:50:20.596Z,3.40
2018-04-19T11:52:48.955Z,3.42
2018-04-19T11:55:16.529Z,3.08
2018-04-19T11:57:44.117Z,3.25
2018-04-19T12:00:11.693Z,3.30
2018-04-19T12:02:39.292Z,3.10
2018-04-19T12:05:06.951Z,3.30
2018-04-19T12:07:34.591Z,3.28
2018-04-19T12:10:02.203Z,3.05
2018-04-19T12:12:30.549Z,3.30
2018-04-19T12:14:58.132Z,3.12
2018-04-19T12:17:26.480Z,3.15
2018-04-19T12:19:54.100Z,4.30
2018-04-19T12:22:21.689Z,3.45
2018-04-19T12:24:49.278Z,3.75
2018-04-19T12:27:17.619Z,3.70
2018-04-19T12:29:45.233Z,3.78
2018-04-19T12:32:13.624Z,3.50
2018-04-19T12:34:45.652Z,3.47
2018-04-19T12:37:14.013Z,3.47
2018-04-19T12:39:41.596Z,3.65
2018-04-19T12:42:09.941Z,3.10
2018-04-19T12:44:37.526Z,3.20
2018-04-19T12:47:05.876Z,3.03
2018-04-19T12:49:33.568Z,3.03
2018-04-19T12:52:01.128Z,2.72
2018-04-19T12:54:29.469Z,2.90
2018-04-19T12:56:57.072Z,3.00
2018-04-19T12:59:25.424Z,3.00
2018-04-19T13:01:53.002Z,3.05
2018-04-19T13:04:21.345Z,2.90
2018-04-19T13:06:48.925Z,2.87
2018-04-19T13:09:17.272Z,2.90
2018-04-19T13:11:44.848Z,2.90
2018-04-19T13:14:12.430Z,3.50
2018-04-19T13:16:40.772Z,2.90
2018-04-19T13:19:08.353Z,3.22
2018-04-19T13:21:36.707Z,3.40
2018-04-19T13:24:10.862Z,3.47
2018-04-19T13:26:39.214Z,4.28
2018-04-19T13:29:06.803Z,4.18
2018-04-19T13:31:35.155Z,4.30
2018-04-19T13:34:02.737Z,4.10
2018-04-19T13:36:30.312Z,3.58
2018-04-19T13:38:58.665Z,3.28
2018-04-19T13:41:26.287Z,3.70
2018-04-19T13:43:53.868Z,3.40
2018-04-19T13:46:21.448Z,3.40
2018-04-19T13:48:49.026Z,3.50
2018-04-19T13:51:17.404Z,3.20
2018-04-19T13:53:45.787Z,2.92
2018-04-19T13:56:14.184Z,3.28
2018-04-19T13:58:41.760Z,3.00
2018-04-19T14:01:09.358Z,2.97
2018-04-19T14:03:36.940Z,3.42
2018-04-19T14:06:05.286Z,3.20
2018-04-19T14:08:32.861Z,3.08
2018-04-19T14:11:01.213Z,3.40
2018-04-19T14:13:28.823Z,3.50
2018-04-19T14:15:56.403Z,3.72
2018-04-19T14:18:23.981Z,3.92
2018-04-19T14:20:51.570Z,3.60
2018-04-19T14:23:19.920Z,3.33
2018-04-19T14:25:47.527Z,3.50
2018-04-19T14:28:16.417Z,3.20
2018-04-19T14:30:44.013Z,3.30
2018-04-19T14:33:11.639Z,4.22
2018-04-19T14:35:39.221Z,4.62
2018-04-19T14:38:06.801Z,4.47
2018-04-19T14:40:34.397Z,5.20
2018-04-19T14:43:03.021Z,5.05
2018-04-19T14:45:30.641Z,4.43
2018-04-19T14:47:58.346Z,5.00
2018-04-19T14:50:25.943Z,4.60
2018-04-19T14:52:54.839Z,4.45
2018-04-19T14:55:24.066Z,4.35
2018-04-19T14:57:53.377Z,4.05
2018-04-19T15:00:20.961Z,3.70
2018-04-19T15:02:48.536Z,3.58
2018-04-19T15:05:17.101Z,3.20
2018-04-19T15:07:46.362Z,3.25
2018-04-19T15:10:14.311Z,3.03
2018-04-19T15:12:43.865Z,3.20
2018-04-19T15:15:11.952Z,3.25
2018-04-19T15:17:40.111Z,3.28
2018-04-19T15:20:08.730Z,3.30
2018-04-19T15:22:36.435Z,2.97
2018-04-19T15:25:04.808Z,2.80
2018-04-19T15:27:32.448Z,2.70
2018-04-19T15:30:00.317Z,2.95
2018-04-19T15:32:32.587Z,2.95
2018-04-19T15:35:00.181Z,2.53
2018-04-19T15:37:27.803Z,2.80
2018-04-19T15:39:55.388Z,2.70
2018-04-19T15:42:22.970Z,2.33
2018-04-19T15:44:51.356Z,2.92
2018-04-19T15:47:19.711Z,2.90
2018-04-19T15:49:47.323Z,2.97
2018-04-19T15:52:14.924Z,3.03
2018-04-19T15:54:42.531Z,2.60
2018-04-19T15:57:10.120Z,3.00
2018-04-19T15:59:37.730Z,2.70
2018-04-19T16:02:05.346Z,2.72
2018-04-19T16:04:32.936Z,2.90
2018-04-19T16:07:00.750Z,2.70
2018-04-19T16:09:28.345Z,2.08
2018-04-19T16:11:55.936Z,2.80
2018-04-19T16:14:23.561Z,2.90
2018-04-19T16:16:51.144Z,2.75
2018-04-19T16:19:18.727Z,3.08
2018-04-19T16:21:46.314Z,2.70
2018-04-19T16:24:14.657Z,3.15
2018-04-19T16:26:42.237Z,2.80
2018-04-19T16:29:09.814Z,2.78
2018-04-19T16:31:38.155Z,2.90
2018-04-19T16:34:11.563Z,3.28
2018-04-19T16:36:39.195Z,2.85
2018-04-19T16:39:06.776Z,2.95
2018-04-19T16:41:34.391Z,2.92
2018-04-19T16:44:01.969Z,3.05
2018-04-19T16:46:29.548Z,3.25
2018-04-19T16:48:57.154Z,3.20
2018-04-19T16:51:24.769Z,3.15
2018-04-19T16:53:52.349Z,3.08
2018-04-19T16:56:20.698Z,3.00
2018-04-19T16:58:48.282Z,3.12
2018-04-19T17:01:16.664Z,2.72
2018-04-19T17:03:45.009Z,3.00
2018-04-19T17:06:12.692Z,3.55
2018-04-19T17:08:40.311Z,3.65
2018-04-19T17:11:07.898Z,3.03
2018-04-19T17:13:35.472Z,3.50
2018-04-19T17:16:03.824Z,3.00
2018-04-19T17:18:31.401Z,3.20
2018-04-19T17:20:58.980Z,3.78
2018-04-19T17:23:27.325Z,3.50
2018-04-19T17:25:54.900Z,3.67
2018-04-19T17:28:23.252Z,3.85
2018-04-19T17:30:50.831Z,3.40
2018-04-19T17:33:19.186Z,3.47
2018-04-19T17:35:46.765Z,3.35
2018-04-19T17:38:15.117Z,3.17
2018-04-19T17:40:42.697Z,3.17
2018-04-19T17:43:10.316Z,2.90
2018-04-19T17:45:37.895Z,3.53
2018-04-19T17:48:05.569Z,3.40
2018-04-19T17:50:33.115Z,3.30
2018-04-19T17:53:00.736Z,3.33
2018-04-19T17:55:28.365Z,3.20
2018-04-19T17:57:56.711Z,3.03
2018-04-19T18:00:24.287Z,3.42
2018-04-19T18:02:52.625Z,3.00
2018-04-19T18:05:20.198Z,3.15
2018-04-19T18:07:47.781Z,3.12
2018-04-19T18:10:16.133Z,3.20
2018-04-19T18:12:43.751Z,3.05
2018-04-19T18:15:11.323Z,2.97
2018-04-19T18:17:38.909Z,3.20
2018-04-19T18:20:06.496Z,2.85
2018-04-19T18:22:34.840Z,2.90
2018-04-19T18:25:02.424Z,3.20
2018-04-19T18:27:30.767Z,3.10
2018-04-19T18:29:58.341Z,3.17
2018-04-19T18:32:25.923Z,3.17
2018-04-19T18:34:54.264Z,2.90
2018-04-19T18:37:21.884Z,2.97
2018-04-19T18:39:49.543Z,3.30
2018-04-19T18:42:17.130Z,3.22
2018-04-19T18:44:44.713Z,3.60
2018-04-19T18:47:12.391Z,3.33
2018-04-19T18:49:40.746Z,2.90
2018-04-19T18:52:08.328Z,3.20
2018-04-19T18:54:36.680Z,3.00
2018-04-19T18:57:04.266Z,2.92
2018-04-19T18:59:32.608Z,3.05
2018-04-19T19:02:00.224Z,3.12
2018-04-19T19:04:28.568Z,3.28
2018-04-19T19:06:56.149Z,3.60
2018-04-19T19:09:23.910Z,4.30
2018-04-19T19:11:51.550Z,4.82
2018-04-19T19:14:19.142Z,5.00
2018-04-19T19:16:46.826Z,5.85
2018-04-19T19:19:26.787Z,6.15
2018-04-19T19:21:54.431Z,7.03
2018-04-19T19:24:22.036Z,8.88
2018-04-19T19:26:49.624Z,9.65
2018-04-19T19:29:17.281Z,9.13
2018-04-19T19:31:44.952Z,9.85
2018-04-19T19:34:12.737Z,9.75
2018-04-19T19:36:40.330Z,9.93
2018-04-19T19:39:07.936Z,9.82
2018-04-19T19:41:36.477Z,10.40
2018-04-19T19:44:04.098Z,10.32
2018-04-19T19:46:31.732Z,9.82
2018-04-19T19:49:02.659Z,10.55
2018-04-19T19:51:30.340Z,9.85
2018-04-19T19:53:57.968Z,9.85
2018-04-19T19:56:25.689Z,10.43
2018-04-19T19:58:53.301Z,10.65
2018-04-19T20:01:21.684Z,10.75
2018-04-19T20:03:49.268Z,10.88
2018-04-19T20:06:17.021Z,11.60
2018-04-19T20:08:44.766Z,11.57
2018-04-19T20:11:12.350Z,12.50
2018-04-19T20:13:39.937Z,12.95
2018-04-19T20:16:07.568Z,13.48
2018-04-19T20:18:36.009Z,14.13
2018-04-19T20:21:03.711Z,14.13
2018-04-19T20:23:32.072Z,14.50
2018-04-19T20:25:59.664Z,14.38
2018-04-19T20:28:27.257Z,16.40
2018-04-19T20:30:55.048Z,16.52
2018-04-19T20:33:22.640Z,18.50
2018-04-19T20:35:51.341Z,19.08
2018-04-19T20:38:18.977Z,24.15
2018-04-19T20:40:46.563Z,18.95
2018-04-19T20:43:14.159Z,21.17
2018-04-19T20:45:41.849Z,21.20
2018-04-19T20:48:09.599Z,24.35
2018-04-19T20:50:37.216Z,23.62
2018-04-19T20:53:05.568Z,20.73
2018-04-19T20:55:33.440Z,22.92
2018-04-19T20:58:01.157Z,23.38
2018-04-19T21:00:28.768Z,22.50
2018-04-19T21:02:56.352Z,23.55
2018-04-19T21:05:24.771Z,23.20
2018-04-19T21:07:53.232Z,20.45
2018-04-19T21:10:20.890Z,18.25
2018-04-19T21:12:48.550Z,18.35
2018-04-19T21:15:16.185Z,17.23
2018-04-19T21:17:44.513Z,16.67
2018-04-19T21:20:12.117Z,15.98
2018-04-19T21:22:40.852Z,17.10
2018-04-19T21:25:08.568Z,16.30
2018-04-19T21:27:36.940Z,16.05
2018-04-19T21:30:04.524Z,16.23
2018-04-19T21:32:32.109Z,16.30
2018-04-19T21:35:00.457Z,16.10
2018-04-19T21:37:28.048Z,16.85
2018-04-19T21:39:56.397Z,21.58
2018-04-19T21:42:23.980Z,21.10
2018-04-19T21:44:52.337Z,21.87
2018-04-19T21:47:19.933Z,22.58
2018-04-19T21:49:47.517Z,21.65
2018-04-19T21:52:15.117Z,20.77
2018-04-19T21:54:42.717Z,22.35
2018-04-19T21:57:10.306Z,20.12
2018-04-19T21:59:37.890Z,21.08
2018-04-19T22:02:05.477Z,20.20
2018-04-19T22:04:33.064Z,19.52
2018-04-19T22:07:00.648Z,20.30
2018-04-19T22:09:28.233Z,19.73
2018-04-19T22:11:56.584Z,18.55
2018-04-19T22:14:24.173Z,19.65
2018-04-19T22:16:52.523Z,18.65
2018-04-19T22:19:20.155Z,18.23
2018-04-19T22:21:47.741Z,17.98
2018-04-19T22:24:15.321Z,15.65
2018-04-19T22:26:43.673Z,14.50
2018-04-19T22:29:11.261Z,13.80
2018-04-19T22:31:39.612Z,12.82
2018-04-19T22:34:07.204Z,12.25
2018-04-19T22:36:34.787Z,12.10
2018-04-19T22:39:02.375Z,12.85
2018-04-19T22:41:29.964Z,13.25
2018-04-19T22:43:58.318Z,13.23
2018-04-19T22:46:25.910Z,12.37
2018-04-19T22:48:54.262Z,12.23
2018-04-19T22:51:21.956Z,13.40
2018-04-19T22:53:49.547Z,12.75
2018-04-19T22:56:17.132Z,13.90
2018-04-19T22:58:44.716Z,13.65
2018-04-19T23:01:13.064Z,14.00
2018-04-19T23:03:40.657Z,13.18
2018-04-19T23:06:09.004Z,12.30
2018-04-19T23:08:36.585Z,11.88
2018-04-19T23:11:04.933Z,12.13
2018-04-19T23:13:32.536Z,12.80
2018-04-19T23:16:00.118Z,13.13
2018-04-19T23:18:27.706Z,12.82
2018-04-19T23:20:55.295Z,12.32
2018-04-19T23:23:23.645Z,10.60
2018-04-19T23:25:51.228Z,12.30
2018-04-19T23:28:19.575Z,11.60
2018-04-19T23:30:47.156Z,11.82
2018-04-19T23:33:15.505Z,10.52
2018-04-19T23:35:43.091Z,10.77
2018-04-19T23:38:11.444Z,10.60
2018-04-19T23:40:39.025Z,10.13
2018-04-19T23:43:07.377Z,11.32
2018-04-19T23:45:34.964Z,11.15
2018-04-19T23:48:03.313Z,9.52
2018-04-19T23:50:30.900Z,9.90
2018-04-19T23:52:59.255Z,10.80
2018-04-19T23:55:26.864Z,10.27
2018-04-19T23:57:54.461Z,9.90
